Terminal Aerodrome Forecast
Issued by NWS Jackson, KY

Home | Current Version | Previous Version | Text Only | Print | Product List | Glossary On
Versions: 1 2 3 4 5 6 7 8 9 10 11 12 13
000
FTUS43 KJKL 312300 RRA
TAFLOZ
TAF
KLOZ 312350Z 0100/0124 32010KT 6SM SHRASN OVC010
     FM010500 31009KT 4SM -SHSNRA BR OVC008
     FM011600 33012G22KT P6SM OVC010
     FM011800 33012G21KT P6SM OVC015
     FM012200 33009KT P6SM BKN030=

USA.gov is the U.S. government's official web portal to all federal, state and local government web resources and services.